Vejrmelding fra flg. lufthavn:

Aalborg

Kodet vejrrapport: 2022/08/08 18:50 EKYT 081850Z AUTO 29007KT 9999 FEW019/// BKN036/// 16/13 Q1026

Vejrrapport

Rapport udsendt: 08-08-2022 20:50

Vejr: Maskingenereret vejrudsigt
Vind: jævn brise fra vest (290 grader) med 13 km/t 3.6 m/s (7 knob, 8 mph, Vindstyrke 3)
Sigtbarhed: 10 km. eller mere
Skyer: få skyer i 579 m
Skyer: spredte i 1097 m
Temperatur: 16 C
Dugpunkt: 13 C
Luftfugtighed: 82%
Lufttrykket: 1026 hPa


Kodet vejrudsigt: 2022/08/08 18:31 TAF EKYT 081701Z 0818/0918 27008KT 9999 SCT025 BKN050 TEMPO 0821/0907 21006KT 7000 BKN010

Vejrudsigt

Vejrudsigt udsendt: 08-08-2022 kl. 20:31
Vejrudsigt gældende: fra d. 08. kl. 20:00 til d. 09. kl. 20:00

Vind: jævn brise fra vest (270 grader) med 15 km/t 4.1 m/s (8 knob, 9 mph, Vindstyrke 3)
Sigtbarhed: 10 km. eller mere
Skyer: spredte i 762 m
Skyer: spredte i 1524 m

I perioder imellem 23:00 og 09:00:
Vind: svag/let brise fra sydvest (210 grader) med 11 km/t 3.1 m/s (6 knob, 7 mph, Vindstyrke 2)
Sigtbarhed: 7000 meter
Skyer: spredte i 305 m